Time;durP1;ratioP1;P1;durP2;ratioP2;P2;SDS_P1;SDS_P2;PMS_P1;PMS_P2;Temp;Humidity;BMP_temperature;BMP_pressure;BME280_temperature;BME280_humidity;BME280_pressure;Samples;Min_cycle;Max_cycle;Signal;HPM_P1;HPM_P2
2022/01/28 00:01:05;;;;;;;15.68;2.55;;;;;;;4.42;85.72;100475.34;5049405;28;20074;-57
2022/01/28 00:03:35;;;;;;;19.65;3.13;;;;;;;4.44;85.22;100476.13;5046096;28;20057;-59
2022/01/28 00:06:03;;;;;;;13.00;2.53;;;;;;;4.46;84.14;100500.41;5051397;28;20073;-58
2022/01/28 00:08:31;;;;;;;24.42;3.20;;;;;;;4.48;85.27;100489.91;5039939;28;20064;-59
2022/01/28 00:10:58;;;;;;;15.00;2.97;;;;;;;4.47;85.09;100485.63;5041919;28;20063;-58
2022/01/28 00:13:37;;;;;;;14.23;2.65;;;;;;;4.47;84.74;100491.69;5027206;28;20047;-58
2022/01/28 00:16:44;;;;;;;16.63;2.63;;;;;;;4.56;84.25;100482.69;5040569;28;20162;-59
2022/01/28 00:19:34;;;;;;;12.57;2.28;;;;;;;4.54;83.64;100503.56;5051698;28;20078;-59
2022/01/28 00:38:35;;;;;;;15.02;2.40;;;;;;;4.52;84.00;100487.16;5052085;28;20094;-58
2022/01/28 00:41:03;;;;;;;16.58;2.80;;;;;;;4.50;83.87;100499.41;5038977;28;20471;-59
2022/01/28 00:43:30;;;;;;;24.00;3.95;;;;;;;4.54;83.89;100485.31;5037470;28;20053;-58
2022/01/28 00:45:57;;;;;;;20.23;3.38;;;;;;;4.55;84.10;100499.22;5042897;28;20060;-59
2022/01/28 00:48:24;;;;;;;13.93;2.35;;;;;;;4.53;83.85;100507.09;5041153;28;20068;-58
2022/01/28 00:50:51;;;;;;;27.55;4.07;;;;;;;4.53;84.32;100508.84;5044329;28;20147;-55
2022/01/28 00:53:19;;;;;;;17.05;3.90;;;;;;;4.49;84.64;100523.75;5046484;28;20056;-59
2022/01/28 00:55:46;;;;;;;19.95;2.70;;;;;;;4.50;84.75;100524.59;5049367;28;20391;-59
2022/01/28 00:58:13;;;;;;;25.10;3.35;;;;;;;4.49;84.50;100548.97;5050212;28;20058;-57
2022/01/28 01:00:41;;;;;;;17.17;3.33;;;;;;;4.51;84.86;100560.19;5034250;28;20394;-56
2022/01/28 01:03:08;;;;;;;15.90;3.20;;;;;;;4.50;84.67;100553.25;5039344;28;20435;-56
2022/01/28 01:05:36;;;;;;;16.75;2.63;;;;;;;4.45;85.48;100543.00;5040190;28;20717;-56
2022/01/28 01:08:04;;;;;;;21.60;3.78;;;;;;;4.46;85.18;100580.38;5042637;28;20489;-59
2022/01/28 01:10:32;;;;;;;17.73;3.00;;;;;;;4.48;85.42;100568.13;5041182;28;20128;-58
2022/01/28 01:13:00;;;;;;;14.60;3.42;;;;;;;4.54;84.45;100549.66;5047541;28;20134;-58
2022/01/28 01:15:33;;;;;;;22.48;3.25;;;;;;;4.54;84.47;100573.09;5049593;28;20048;-58
2022/01/28 01:18:09;;;;;;;23.15;3.15;;;;;;;4.50;84.27;100571.50;5045857;28;20533;-59
2022/01/28 01:23:37;;;;;;;20.15;4.28;;;;;;;4.52;84.60;100591.41;5033681;28;19920;-57
2022/01/28 01:28:34;;;;;;;16.77;3.00;;;;;;;4.46;84.61;100581.22;5049989;28;20139;-59
2022/01/28 01:31:04;;;;;;;23.42;3.15;;;;;;;4.48;85.22;100592.44;5039197;28;20064;-57
2022/01/28 01:33:38;;;;;;;23.60;4.05;;;;;;;4.44;84.64;100597.81;5037258;28;20057;-58
2022/01/28 01:36:05;;;;;;;19.75;3.33;;;;;;;4.46;85.24;100603.84;5050428;28;20505;-59
2022/01/28 01:38:36;;;;;;;18.98;3.30;;;;;;;4.47;85.03;100616.81;5053883;28;20045;-58
2022/01/28 01:41:07;;;;;;;15.13;2.92;;;;;;;4.43;84.10;100601.31;5041968;28;20057;-59
2022/01/28 01:43:59;;;;;;;22.48;3.05;;;;;;;4.47;83.16;100602.91;5040763;28;20045;-57
2022/01/28 01:47:11;;;;;;;23.08;2.45;;;;;;;4.43;83.22;100623.03;5032382;28;20053;-57
2022/01/28 01:52:17;;;;;;;22.85;2.70;;;;;;;4.41;82.62;100617.00;5034456;28;20505;-58
2022/01/28 01:54:44;;;;;;;22.80;3.38;;;;;;;4.45;83.44;100625.56;5046430;28;20051;-57
2022/01/28 01:57:12;;;;;;;19.60;3.28;;;;;;;4.40;83.02;100625.72;5046748;28;20132;-58
2022/01/28 01:59:41;;;;;;;20.40;2.83;;;;;;;4.42;83.15;100628.28;5044598;28;20041;-60
2022/01/28 02:02:08;;;;;;;12.73;2.92;;;;;;;4.42;83.94;100630.91;5041187;28;20053;-59
2022/01/28 02:04:37;;;;;;;21.67;3.03;;;;;;;4.41;84.05;100624.81;5047976;28;20402;-55
2022/01/28 02:07:04;;;;;;;17.60;2.72;;;;;;;4.40;84.83;100662.22;5056703;28;20545;-58
2022/01/28 02:09:32;;;;;;;22.38;2.85;;;;;;;4.39;84.17;100650.09;5057580;28;20057;-59
2022/01/28 02:11:59;;;;;;;14.57;3.33;;;;;;;4.38;84.75;100644.94;5028597;28;20053;-54
2022/01/28 02:14:26;;;;;;;27.02;3.95;;;;;;;4.39;84.81;100662.28;5041450;28;20128;-56
2022/01/28 02:16:53;;;;;;;23.48;3.20;;;;;;;4.39;84.52;100657.91;5051768;28;20139;-54
2022/01/28 02:19:21;;;;;;;26.45;3.58;;;;;;;4.36;84.65;100668.41;5062213;28;20135;-58
2022/01/28 02:21:51;;;;;;;15.15;3.55;;;;;;;4.35;84.45;100668.47;5054252;28;20122;-57
2022/01/28 02:24:25;;;;;;;19.67;3.22;;;;;;;4.34;84.25;100653.75;5047950;28;20061;-56
2022/01/28 02:26:52;;;;;;;16.77;3.05;;;;;;;4.36;84.14;100675.38;5052345;28;20498;-57
2022/01/28 02:29:28;;;;;;;17.15;3.22;;;;;;;4.34;83.60;100678.06;5054395;28;20526;-58
2022/01/28 02:31:56;;;;;;;18.05;3.13;;;;;;;4.34;83.37;100675.44;5050922;28;20041;-58
2022/01/28 02:34:23;;;;;;;20.25;3.53;;;;;;;4.36;83.36;100691.03;5047055;28;20045;-56
2022/01/28 02:36:50;;;;;;;26.50;4.18;;;;;;;4.34;83.49;100701.50;5031967;28;20063;-57
2022/01/28 02:39:17;;;;;;;27.48;3.47;;;;;;;4.37;83.47;100705.75;5055155;28;20151;-57
2022/01/28 02:41:48;;;;;;;21.55;3.25;;;;;;;4.33;83.56;100692.00;5053648;28;20053;-58
2022/01/28 02:44:24;;;;;;;22.02;3.83;;;;;;;4.28;83.35;100689.53;5025343;28;20504;-58
2022/01/28 02:46:58;;;;;;;27.50;3.97;;;;;;;4.31;84.05;100696.38;5041204;28;20079;-58
2022/01/28 02:49:29;;;;;;;16.83;3.00;;;;;;;4.34;83.94;100709.34;5047924;28;20070;-59
2022/01/28 02:51:59;;;;;;;25.90;3.63;;;;;;;4.30;84.50;100703.34;5048863;28;20606;-54
2022/01/28 02:54:26;;;;;;;24.25;3.60;;;;;;;4.25;85.07;100733.94;5038592;28;20421;-55
2022/01/28 02:57:00;;;;;;;24.95;3.33;;;;;;;4.27;85.07;100744.28;5044374;28;20144;-58
2022/01/28 02:59:27;;;;;;;18.38;3.88;;;;;;;4.25;85.18;100733.06;5032560;28;20544;-57
2022/01/28 03:01:55;;;;;;;19.85;3.47;;;;;;;4.20;86.66;100732.38;5033695;28;20133;-58
2022/01/28 03:05:03;;;;;;;17.27;2.85;;;;;;;4.15;86.66;100731.66;5047002;28;20061;-56
2022/01/28 03:07:28;;;;;;;24.33;4.07;;;;;;;4.15;86.70;100736.88;5053673;28;20052;-57
2022/01/28 03:12:35;;;;;;;22.90;3.53;;;;;;;4.13;86.90;100742.09;5052289;28;20060;-56
2022/01/28 03:15:06;;;;;;;21.25;3.70;;;;;;;4.07;87.55;100752.72;5049660;22;20098;-64
2022/01/28 03:20:29;;;;;;;27.15;3.42;;;;;;;4.13;86.67;100749.94;5007975;28;20154;-62
2022/01/28 03:22:49;;;;;;;20.02;2.88;;;;;;;4.18;85.97;100753.25;5015455;28;20066;-62
2022/01/28 03:25:16;;;;;;;20.67;4.00;;;;;;;4.22;86.22;100748.78;5005396;28;20049;-62
2022/01/28 03:30:13;;;;;;;19.30;3.30;;;;;;;4.22;84.96;100769.63;5011621;28;20132;-62
2022/01/28 03:32:42;;;;;;;26.05;3.75;;;;;;;4.21;85.50;100770.53;5013714;28;20060;-62
2022/01/28 03:35:28;;;;;;;;;;;;;;;4.24;85.48;100780.88;5013420;28;20046;-62
2022/01/28 03:38:00;;;;;;;18.30;3.80;;;;;;;4.25;85.69;100787.78;5007300;28;19925;-62
2022/01/28 03:40:38;;;;;;;23.30;3.33;;;;;;;4.20;85.03;100781.88;5007008;28;20050;-62
2022/01/28 03:43:05;;;;;;;28.90;4.07;;;;;;;4.19;84.78;100790.59;5012976;28;20133;-63
2022/01/28 03:45:33;;;;;;;21.70;3.97;;;;;;;4.25;85.14;100790.41;5009702;28;20050;-62
2022/01/28 03:48:00;;;;;;;29.10;4.43;;;;;;;4.28;84.38;100792.94;5012970;28;20568;-63
2022/01/28 03:50:32;;;;;;;22.73;3.65;;;;;;;4.26;83.84;100790.34;5009646;28;20110;-63
2022/01/28 03:53:04;;;;;;;26.73;4.75;;;;;;;4.25;84.53;100798.22;5013229;28;20109;-63
2022/01/28 03:55:31;;;;;;;18.58;3.10;;;;;;;4.26;83.70;100799.91;5008546;28;20044;-62
2022/01/28 03:57:58;;;;;;;19.20;3.72;;;;;;;4.29;84.30;100802.44;5009858;28;20050;-63
2022/01/28 04:00:29;;;;;;;31.00;3.78;;;;;;;4.28;83.54;100808.56;5010328;28;20049;-63
2022/01/28 04:03:23;;;;;;;21.65;2.97;;;;;;;4.27;83.70;100818.09;4997000;28;20132;-62
2022/01/28 04:11:27;;;;;;;15.38;2.97;;;;;;;4.24;83.52;100826.03;5015050;28;20053;-62
2022/01/28 04:11:33;;;;;;;23.40;3.47;;;;;;;4.27;83.61;100832.91;4996869;28;20113;-62
2022/01/28 04:14:22;;;;;;;17.48;3.00;;;;;;;4.27;83.76;100836.34;5013591;28;20149;-62
2022/01/28 04:19:37;;;;;;;30.27;3.95;;;;;;;4.27;82.67;100835.50;5008938;28;20476;-63
2022/01/28 04:22:04;;;;;;;20.08;3.13;;;;;;;4.28;82.84;100837.22;5011425;28;20056;-63
2022/01/28 04:24:31;;;;;;;22.85;4.35;;;;;;;4.27;81.71;100830.28;5002357;28;20069;-61
2022/01/28 04:26:58;;;;;;;18.45;3.15;;;;;;;4.30;80.99;100845.84;5010005;28;20064;-62
2022/01/28 04:29:26;;;;;;;24.23;3.72;;;;;;;4.25;81.10;100855.56;5009026;28;20092;-62
2022/01/28 04:31:53;;;;;;;23.90;3.88;;;;;;;4.31;81.43;100852.75;5008065;28;20053;-62
2022/01/28 04:34:22;;;;;;;16.70;3.45;;;;;;;4.39;80.34;100848.19;5011705;28;20096;-62
2022/01/28 04:37:03;;;;;;;23.05;3.78;;;;;;;4.32;80.23;100849.25;5012629;28;20060;-63
2022/01/28 04:39:43;;;;;;;27.30;4.30;;;;;;;4.31;79.84;100850.16;5005273;28;20054;-62
2022/01/28 04:47:52;;;;;;;21.90;4.57;;;;;;;4.33;78.95;100887.47;5003046;28;20403;-62
2022/01/28 05:04:16;;;;;;;15.52;2.85;;;;;;;4.46;77.63;100911.44;5007628;28;20057;-62
2022/01/28 05:09:54;;;;;;;15.75;2.97;;;;;;;4.45;76.99;100925.34;5008568;28;20064;-62
2022/01/28 05:23:27;;;;;;;19.50;2.95;;;;;;;4.47;77.06;100941.81;5004554;28;20172;-62
2022/01/28 05:28:41;;;;;;;19.65;2.88;;;;;;;4.51;76.45;100949.50;5010584;28;20064;-62
2022/01/28 05:31:08;;;;;;;22.63;3.58;;;;;;;4.47;77.00;100988.72;5008187;28;20129;-62
2022/01/28 05:33:35;;;;;;;25.73;3.95;;;;;;;4.45;76.95;100970.50;5012418;28;20079;-62
2022/01/28 05:36:03;;;;;;;22.10;3.20;;;;;;;4.47;76.75;100976.53;4994846;28;20038;-62
2022/01/28 05:38:30;;;;;;;22.13;3.83;;;;;;;4.47;76.80;100973.94;5015247;28;20046;-62
